This is the latest recevied weather packets stored in our database for station/object EA1HLH-13. If no packets are shown the sender has not sent any weather packets the latest 1 day(s).
| Time | Temp. | Humidity | Pressure | Rain* | Wind** | Luminosity | Snow |
|---|---|---|---|---|---|---|---|
| 1778087240 | 13.33° C | 89% | 1013.7 hPa | 0 mm | - | - | - |
| 1778086940 | 13.33° C | 88% | 1013.7 hPa | 0 mm | - | - | - |
| 1778086640 | 13.89° C | 88% | 1013.6 hPa | 0 mm | - | - | - |
| 1778086340 | 13.89° C | 86% | 1013.8 hPa | 0 mm | - | - | - |
| 1778086040 | 13.89° C | 86% | 1013.7 hPa | 0 mm | - | - | - |
| 1778085741 | 13.89° C | 84% | 1013.7 hPa | 0 mm | - | - | - |
| 1778085441 | 13.89° C | 84% | 1013.7 hPa | 0 mm | - | - | - |
| 1778085141 | 13.33° C | 83% | 1013.7 hPa | 0 mm | - | - | - |
| 1778084841 | 13.33° C | 83% | 1013.8 hPa | 0 mm | - | - | - |
| 1778084241 | 13.33° C | 84% | 1013.8 hPa | 0 mm | - | - | - |
| 1778083641 | 14.44° C | 84% | 1013.9 hPa | 0 mm | - | - | - |
| 1778083341 | 14.44° C | 83% | 1013.8 hPa | 0 mm | - | - | - |
| 1778083041 | 14.44° C | 82% | 1013.9 hPa | 0 mm | - | - | - |
| 1778082741 | 14.44° C | 81% | 1013.9 hPa | 0 mm | - | - | - |
| 1778082441 | 14.44° C | 80% | 1013.9 hPa | 0 mm | - | - | - |
| 1778082141 | 14.44° C | 79% | 1014 hPa | 0 mm | - | - | - |
| 1778081841 | 14.44° C | 81% | 1013.9 hPa | 0 mm | - | - | - |
| 1778081539 | 14.44° C | 81% | 1013.9 hPa | 0 mm | - | - | - |
| 1778081239 | 14.44° C | 81% | 1014 hPa | 0 mm | - | - | - |
| 1778080939 | 14.44° C | 82% | 1013.9 hPa | 0 mm | - | - | - |
| 1778080639 | 14.44° C | 81% | 1014 hPa | 0 mm | - | - | - |
| 1778080339 | 14.44° C | 80% | 1014 hPa | 0 mm | - | - | - |
| 1778080040 | 14.44° C | 80% | 1014.1 hPa | 0 mm | - | - | - |
| 1778079739 | 14.44° C | 81% | 1014.1 hPa | 0 mm | - | - | - |
| 1778079140 | 15° C | 78% | 1014.3 hPa | 0 mm | - | - | - |
* Rain latest hour (hover to see other rain measurements)
** Current wind speed in m/s (hover to see current wind gust speed)